Time;durP1;ratioP1;P1;durP2;ratioP2;P2;SDS_P1;SDS_P2;PMS_P1;PMS_P2;Temp;Humidity;BMP_temperature;BMP_pressure;BME280_temperature;BME280_humidity;BME280_pressure;Samples;Min_cycle;Max_cycle;Signal;HPM_P1;HPM_P2
2022/07/04 00:01:58;;;;;;;4.70;1.85;;;12.40;99.90;;;;;;7341437;32;20366;-62
2022/07/04 00:05:59;;;;;;;3.87;1.73;;;12.30;99.90;;;;;;7342213;32;20544;-62
2022/07/04 00:10:01;;;;;;;3.37;1.85;;;12.30;99.90;;;;;;7343095;32;20416;-61
2022/07/04 00:14:03;;;;;;;8.77;1.80;;;12.30;99.90;;;;;;7340333;32;20752;-61
2022/07/04 00:18:05;;;;;;;5.85;1.87;;;12.20;99.90;;;;;;7344914;32;20103;-62
2022/07/04 00:22:07;;;;;;;5.05;1.83;;;12.20;99.90;;;;;;7344426;32;20436;-62
2022/07/04 00:26:09;;;;;;;6.85;1.75;;;12.10;99.90;;;;;;7345349;32;20228;-62
2022/07/04 00:30:11;;;;;;;8.02;1.98;;;12.00;99.90;;;;;;7340291;32;20157;-61
2022/07/04 00:34:12;;;;;;;7.12;1.75;;;12.00;99.90;;;;;;7342425;32;20161;-61
2022/07/04 00:38:14;;;;;;;5.32;1.48;;;11.90;99.90;;;;;;7340849;32;20180;-62
2022/07/04 00:42:16;;;;;;;2.25;1.30;;;11.80;99.90;;;;;;7340594;32;20119;-62
2022/07/04 00:46:18;;;;;;;4.68;1.20;;;11.80;99.90;;;;;;7329631;32;20325;-61
2022/07/04 00:50:29;;;;;;;4.37;1.20;;;11.70;99.90;;;;;;7341120;32;20171;-62
2022/07/04 00:54:32;;;;;;;9.57;1.40;;;11.70;99.90;;;;;;7339011;32;20147;-62
2022/07/04 00:58:34;;;;;;;2.17;1.10;;;11.60;99.90;;;;;;7338953;32;20127;-62
2022/07/04 01:02:36;;;;;;;3.85;1.70;;;11.60;99.90;;;;;;7340161;32;20190;-62
2022/07/04 01:06:37;;;;;;;4.30;0.90;;;11.60;99.90;;;;;;7341976;32;20232;-63
2022/07/04 01:10:39;;;;;;;4.37;1.20;;;11.50;99.90;;;;;;7340053;32;20176;-65
2022/07/04 01:14:41;;;;;;;3.03;1.20;;;11.50;99.90;;;;;;7338966;32;20125;-62
2022/07/04 01:18:43;;;;;;;5.85;1.08;;;11.50;99.90;;;;;;7337220;32;20122;-61
2022/07/04 01:22:45;;;;;;;3.15;1.10;;;11.40;99.90;;;;;;7341368;32;20186;-63
2022/07/04 01:26:47;;;;;;;4.20;1.15;;;11.40;99.90;;;;;;7331914;32;20095;-62
2022/07/04 01:30:49;;;;;;;6.07;1.20;;;11.30;99.90;;;;;;7338520;32;20166;-62
2022/07/04 01:34:51;;;;;;;2.22;1.10;;;11.40;99.90;;;;;;7339693;32;20761;-62
2022/07/04 01:38:55;;;;;;;1.48;1.00;;;11.30;99.90;;;;;;7333217;32;20411;-62
2022/07/04 01:42:58;;;;;;;2.87;1.20;;;11.20;99.90;;;;;;7335039;32;20163;-61
2022/07/04 01:47:00;;;;;;;2.03;1.00;;;11.20;99.90;;;;;;7341008;32;20206;-61
2022/07/04 01:51:02;;;;;;;2.83;1.00;;;11.20;99.90;;;;;;7338469;32;20164;-61
2022/07/04 01:55:05;;;;;;;3.22;1.25;;;11.10;99.90;;;;;;7338449;32;20148;-62
2022/07/04 01:59:08;;;;;;;2.87;1.08;;;11.10;99.90;;;;;;7344879;32;20127;-61
2022/07/04 02:03:10;;;;;;;6.45;1.10;;;11.00;99.90;;;;;;7347458;32;20298;-61
2022/07/04 02:07:19;;;;;;;2.00;0.90;;;11.00;99.90;;;;;;7338143;32;20129;-61
2022/07/04 02:11:21;;;;;;;5.22;1.23;;;10.90;99.90;;;;;;7334858;32;20115;-61
2022/07/04 02:15:23;;;;;;;2.70;0.90;;;10.90;99.90;;;;;;7338604;32;20794;-62
2022/07/04 02:19:25;;;;;;;1.55;1.00;;;10.90;99.90;;;;;;7338732;32;20103;-61
2022/07/04 02:23:27;;;;;;;1.42;1.00;;;10.90;99.90;;;;;;7343060;32;20202;-61
2022/07/04 02:27:28;;;;;;;2.78;1.08;;;10.90;99.90;;;;;;7340380;32;20095;-61
2022/07/04 02:31:30;;;;;;;2.42;1.00;;;10.80;99.90;;;;;;7343099;32;20217;-62
2022/07/04 02:35:32;;;;;;;2.47;1.08;;;10.70;99.90;;;;;;7345115;32;21370;-61
2022/07/04 02:39:34;;;;;;;3.55;1.25;;;10.80;99.90;;;;;;7345445;32;20192;-61
2022/07/04 02:43:35;;;;;;;3.17;1.30;;;10.80;99.90;;;;;;7340944;32;20498;-61
2022/07/04 02:47:37;;;;;;;4.57;1.42;;;10.70;99.90;;;;;;7346953;32;20325;-62
2022/07/04 02:51:39;;;;;;;3.75;1.52;;;10.70;99.90;;;;;;7342779;32;20084;-61
2022/07/04 02:55:41;;;;;;;4.50;1.10;;;10.70;99.90;;;;;;7334693;32;20679;-62
2022/07/04 02:59:43;;;;;;;2.30;1.23;;;10.70;99.90;;;;;;7346218;32;20186;-62
2022/07/04 03:03:46;;;;;;;3.42;1.10;;;10.60;99.90;;;;;;7343998;32;20130;-62
2022/07/04 03:07:48;;;;;;;4.65;1.00;;;10.60;99.90;;;;;;7337974;32;20250;-61
2022/07/04 03:11:49;;;;;;;2.47;1.45;;;10.50;99.90;;;;;;7342569;32;20463;-61
2022/07/04 03:15:52;;;;;;;1.10;0.90;;;10.50;99.90;;;;;;7342013;32;20118;-61
2022/07/04 03:19:53;;;;;;;4.03;1.20;;;10.40;99.90;;;;;;7343812;32;20125;-61
2022/07/04 03:23:58;;;;;;;1.55;1.10;;;10.40;99.90;;;;;;7345885;32;20128;-61
2022/07/04 03:28:00;;;;;;;1.35;1.08;;;10.40;99.90;;;;;;7344236;32;20103;-61
2022/07/04 03:32:02;;;;;;;2.90;1.58;;;10.30;99.90;;;;;;7343165;32;20111;-61
2022/07/04 03:36:04;;;;;;;4.10;1.25;;;10.40;99.90;;;;;;7340938;32;20192;-61
2022/07/04 03:40:06;;;;;;;1.87;1.25;;;10.30;99.90;;;;;;7344874;32;20577;-61
2022/07/04 03:44:08;;;;;;;2.60;0.95;;;10.30;99.90;;;;;;7345860;32;20268;-62
2022/07/04 03:48:10;;;;;;;3.20;1.15;;;10.30;99.90;;;;;;7344213;32;20154;-61
2022/07/04 03:52:12;;;;;;;2.20;1.20;;;10.30;99.90;;;;;;7349847;32;20125;-61
2022/07/04 03:56:14;;;;;;;3.28;1.20;;;10.30;99.90;;;;;;7345022;32;20111;-61
2022/07/04 04:00:16;;;;;;;4.10;1.33;;;10.30;99.90;;;;;;7333943;32;20148;-61
2022/07/04 04:08:38;;;;;;;4.78;1.30;;;10.40;99.90;;;;;;7340582;32;20868;-63
2022/07/04 04:12:40;;;;;;;1.87;1.23;;;10.50;99.90;;;;;;7343059;32;20160;-63
2022/07/04 04:16:42;;;;;;;2.53;1.40;;;10.50;99.90;;;;;;7341533;32;20281;-60
2022/07/04 04:20:44;;;;;;;1.70;1.10;;;10.60;99.90;;;;;;7342142;32;20171;-61
2022/07/04 04:24:46;;;;;;;4.68;1.30;;;10.60;99.90;;;;;;7341680;32;20119;-62
2022/07/04 04:28:48;;;;;;;2.15;1.15;;;10.70;99.90;;;;;;7343345;32;20314;-62
2022/07/04 04:32:50;;;;;;;1.80;1.37;;;10.70;99.90;;;;;;7338563;32;20108;-62
2022/07/04 04:36:51;;;;;;;4.47;1.30;;;10.90;99.90;;;;;;7343611;32;20154;-62
2022/07/04 04:40:53;;;;;;;4.43;1.30;;;11.20;99.90;;;;;;7337509;32;22751;-62
2022/07/04 04:44:55;;;;;;;6.45;1.40;;;11.50;99.90;;;;;;7339007;32;20431;-62
2022/07/04 04:49:11;;;;;;;9.77;1.58;;;11.70;99.90;;;;;;7345374;32;20574;-66
2022/07/04 04:53:13;;;;;;;1.60;1.10;;;12.10;99.90;;;;;;7340126;32;20171;-65
2022/07/04 04:57:15;;;;;;;6.35;1.50;;;12.50;99.90;;;;;;7335654;32;20176;-65
2022/07/04 05:01:17;;;;;;;4.10;1.10;;;13.10;99.90;;;;;;7340167;32;20555;-65
2022/07/04 05:05:38;;;;;;;6.47;1.55;;;13.70;99.90;;;;;;7337872;32;20318;-65
2022/07/04 05:09:40;;;;;;;2.50;1.30;;;14.30;99.90;;;;;;7338389;32;20391;-65
2022/07/04 05:13:43;;;;;;;2.62;1.25;;;14.80;99.90;;;;;;7337423;32;20609;-65
2022/07/04 05:17:44;;;;;;;4.30;1.50;;;15.50;99.90;;;;;;7335555;32;20161;-65
2022/07/04 05:21:46;;;;;;;5.57;2.33;;;16.20;99.90;;;;;;7337864;32;20382;-64
2022/07/04 05:25:48;;;;;;;7.57;3.42;;;16.80;99.90;;;;;;7343560;32;20224;-65
2022/07/04 05:29:50;;;;;;;6.07;3.47;;;17.30;99.90;;;;;;7342539;32;20226;-65
2022/07/04 05:33:56;;;;;;;9.30;4.20;;;18.00;99.90;;;;;;7339477;32;20115;-67
2022/07/04 05:37:58;;;;;;;6.97;3.80;;;18.60;99.90;;;;;;7340202;32;20137;-66
2022/07/04 05:41:59;;;;;;;10.43;4.53;;;18.90;99.90;;;;;;7338964;32;20238;-63
2022/07/04 05:46:01;;;;;;;6.57;3.92;;;19.50;99.90;;;;;;7333517;32;20110;-64
2022/07/04 05:50:04;;;;;;;9.57;5.37;;;19.80;99.90;;;;;;7342604;32;20115;-65
2022/07/04 05:54:06;;;;;;;6.95;4.10;;;20.00;99.90;;;;;;7336445;32;20602;-65
2022/07/04 05:58:07;;;;;;;7.85;3.72;;;20.40;99.90;;;;;;7337564;32;20171;-64
2022/07/04 06:02:09;;;;;;;7.25;3.53;;;20.70;99.90;;;;;;7340608;32;20110;-64
2022/07/04 06:06:11;;;;;;;6.15;3.37;;;20.90;99.90;;;;;;7339790;32;20131;-65
2022/07/04 06:10:13;;;;;;;5.95;3.65;;;21.00;99.90;;;;;;7338267;32;20115;-64
2022/07/04 06:14:15;;;;;;;9.57;4.12;;;20.90;99.90;;;;;;7336026;32;20139;-64
2022/07/04 06:18:17;;;;;;;9.00;3.75;;;20.00;99.90;;;;;;7342685;32;20110;-66
2022/07/04 06:22:18;;;;;;;8.88;3.72;;;19.20;99.90;;;;;;7336451;32;20426;-65
2022/07/04 06:26:26;;;;;;;11.30;3.60;;;18.70;99.90;;;;;;7333101;32;21843;-68
2022/07/04 06:30:28;;;;;;;10.60;4.32;;;18.50;99.90;;;;;;7337469;32;20214;-68
2022/07/04 06:38:51;;;;;;;7.93;3.72;;;18.20;99.90;;;;;;7340073;32;20126;-64
2022/07/04 06:42:52;;;;;;;9.75;3.50;;;18.10;99.90;;;;;;7336957;32;20205;-64
2022/07/04 06:46:54;;;;;;;9.38;3.37;;;18.10;99.90;;;;;;7344825;32;20095;-64
2022/07/04 06:50:56;;;;;;;4.03;2.62;;;18.20;99.90;;;;;;7336700;32;20099;-65
2022/07/04 06:54:58;;;;;;;6.10;2.53;;;18.00;99.90;;;;;;7342759;32;20123;-65
2022/07/04 06:59:06;;;;;;;4.80;2.33;;;18.10;99.90;;;;;;7339871;32;20208;-64
2022/07/04 07:03:08;;;;;;;6.78;2.42;;;18.10;99.90;;;;;;7343780;32;20853;-63
2022/07/04 07:07:09;;;;;;;5.75;2.00;;;18.30;99.90;;;;;;7342224;32;20196;-65
2022/07/04 07:11:16;;;;;;;5.25;1.87;;;18.20;99.90;;;;;;7345491;32;20145;-65
2022/07/04 07:15:19;;;;;;;4.03;1.90;;;18.20;99.90;;;;;;7346460;32;20127;-65
2022/07/04 07:19:21;;;;;;;6.68;2.00;;;18.30;99.90;;;;;;7343830;32;20115;-65
2022/07/04 07:23:23;;;;;;;5.25;1.52;;;18.40;99.90;;;;;;7343228;32;20774;-64
2022/07/04 07:27:25;;;;;;;7.85;2.05;;;18.60;99.90;;;;;;7348378;32;20234;-67
2022/07/04 07:31:27;;;;;;;5.00;1.83;;;18.60;99.90;;;;;;7343135;32;20792;-65
2022/07/04 07:35:29;;;;;;;4.32;1.10;;;18.70;99.90;;;;;;7346821;32;20178;-65
2022/07/04 07:39:31;;;;;;;5.85;1.08;;;18.80;99.90;;;;;;7342179;32;20564;-67
2022/07/04 07:43:32;;;;;;;4.97;1.00;;;18.60;99.90;;;;;;7346016;32;20607;-68
2022/07/04 07:47:34;;;;;;;3.25;0.93;;;18.80;99.90;;;;;;7338131;32;20165;-67
2022/07/04 07:51:36;;;;;;;3.83;0.88;;;18.80;99.90;;;;;;7336327;32;20103;-67
2022/07/04 07:55:38;;;;;;;2.35;0.70;;;19.00;99.90;;;;;;7344584;32;20112;-66
2022/07/04 07:59:40;;;;;;;3.25;0.65;;;19.00;99.90;;;;;;7341605;32;20122;-66
2022/07/04 08:08:03;;;;;;;2.58;0.77;;;19.20;99.90;;;;;;7341152;32;20099;-66
2022/07/04 08:12:06;;;;;;;3.92;0.65;;;19.30;99.90;;;;;;7346249;32;20128;-66
2022/07/04 08:16:08;;;;;;;5.15;0.60;;;19.50;99.90;;;;;;7341455;32;20193;-65
2022/07/04 08:20:10;;;;;;;1.85;0.52;;;19.60;99.90;;;;;;7338378;32;20135;-66
2022/07/04 08:24:15;;;;;;;2.33;0.40;;;19.80;99.90;;;;;;7345939;32;20745;-67
2022/07/04 08:28:20;;;;;;;3.03;0.80;;;20.10;99.90;;;;;;7349105;32;20750;-65
2022/07/04 08:32:22;;;;;;;3.05;0.37;;;20.20;99.90;;;;;;7342427;32;20117;-66
2022/07/04 08:36:24;;;;;;;3.72;0.70;;;20.50;99.90;;;;;;7342643;32;20154;-65
2022/07/04 08:40:28;;;;;;;2.85;0.43;;;20.90;99.90;;;;;;7341862;32;20125;-65
2022/07/04 08:44:38;;;;;;;2.45;0.40;;;21.00;99.90;;;;;;7340117;32;20286;-65
2022/07/04 08:48:42;;;;;;;3.10;0.40;;;21.20;99.90;;;;;;7334387;32;20239;-65
2022/07/04 08:52:53;;;;;;;2.28;0.50;;;21.40;99.90;;;;;;7333476;32;20130;-65
2022/07/04 09:01:16;;;;;;;1.90;0.40;;;21.70;99.90;;;;;;7341230;32;20131;-65
2022/07/04 09:05:18;;;;;;;7.75;0.60;;;22.10;99.90;;;;;;7336124;32;20270;-65
2022/07/04 09:09:20;;;;;;;1.45;0.43;;;22.40;99.90;;;;;;7333848;32;20214;-66
2022/07/04 09:13:22;;;;;;;2.70;0.47;;;22.40;99.90;;;;;;7332835;32;20612;-61
2022/07/04 09:17:24;;;;;;;1.85;0.40;;;22.70;99.90;;;;;;7342400;32;20135;-65
2022/07/04 09:21:44;;;;;;;2.08;0.50;;;23.20;99.90;;;;;;7342273;32;20145;-63
2022/07/04 09:25:46;;;;;;;2.10;0.45;;;23.40;99.20;;;;;;7340866;32;20498;-63
2022/07/04 09:29:54;;;;;;;3.35;0.50;;;23.90;98.20;;;;;;7343426;32;20115;-62
2022/07/04 09:34:06;;;;;;;4.72;0.40;;;24.00;96.00;;;;;;7343011;32;20567;-68
2022/07/04 09:38:12;;;;;;;3.42;0.50;;;24.60;94.90;;;;;;7334031;32;20205;-68
2022/07/04 09:42:17;;;;;;;1.92;0.50;;;24.90;93.80;;;;;;7334840;32;20099;-66
2022/07/04 09:46:22;;;;;;;2.95;0.50;;;24.60;90.20;;;;;;7335917;32;20828;-68
2022/07/04 09:50:26;;;;;;;2.55;0.50;;;24.70;91.50;;;;;;7335577;32;20103;-67
2022/07/04 09:54:32;;;;;;;1.42;0.30;;;24.70;91.30;;;;;;7343139;32;20146;-68
2022/07/04 09:58:35;;;;;;;2.42;0.60;;;25.10;91.60;;;;;;7343383;32;20107;-68
2022/07/04 10:02:37;;;;;;;3.67;0.50;;;25.60;90.00;;;;;;7335073;32;20296;-69
2022/07/04 10:06:41;;;;;;;1.45;0.40;;;24.80;89.80;;;;;;7340295;32;20690;-69
2022/07/04 10:10:44;;;;;;;1.52;0.40;;;25.10;90.00;;;;;;7339131;32;20152;-67
2022/07/04 10:14:46;;;;;;;1.67;0.30;;;25.20;88.30;;;;;;7344778;32;20201;-69
2022/07/04 10:18:48;;;;;;;1.95;0.50;;;25.30;84.80;;;;;;7333361;32;21494;-68
2022/07/04 10:22:50;;;;;;;2.55;0.30;;;25.60;88.80;;;;;;7334403;32;20533;-68
2022/07/04 10:26:52;;;;;;;4.05;0.50;;;25.90;87.40;;;;;;7339956;32;20170;-69
2022/07/04 10:30:56;;;;;;;1.27;0.50;;;25.70;83.80;;;;;;7341355;32;20160;-68
2022/07/04 10:34:58;;;;;;;2.00;0.40;;;26.00;84.70;;;;;;7341909;32;20103;-68
2022/07/04 10:39:10;;;;;;;4.40;2.12;;;25.90;82.70;;;;;;7341241;32;20213;-67
2022/07/04 10:43:31;;;;;;;4.03;0.70;;;25.70;82.10;;;;;;7344534;32;20310;-68
2022/07/04 10:47:32;;;;;;;1.90;0.50;;;25.00;86.50;;;;;;7341359;32;20293;-68
2022/07/04 10:51:49;;;;;;;2.53;0.57;;;24.80;87.00;;;;;;7336359;32;20118;-65
2022/07/04 10:55:50;;;;;;;1.03;0.40;;;24.90;90.90;;;;;;7343091;32;20294;-66
2022/07/04 10:59:52;;;;;;;3.47;0.57;;;25.10;90.20;;;;;;7343736;32;20157;-65
2022/07/04 11:03:54;;;;;;;5.35;0.70;;;25.40;88.70;;;;;;7339319;32;20125;-66
2022/07/04 11:07:58;;;;;;;3.08;0.57;;;25.60;83.30;;;;;;7333897;32;20213;-66
2022/07/04 11:12:03;;;;;;;2.53;0.40;;;26.00;86.30;;;;;;7341021;32;20284;-66
2022/07/04 11:16:06;;;;;;;2.17;0.43;;;25.50;81.90;;;;;;7346453;32;20228;-66
2022/07/04 11:20:09;;;;;;;1.15;0.30;;;25.40;81.30;;;;;;7345255;32;20119;-66
2022/07/04 11:24:10;;;;;;;2.20;0.50;;;25.70;83.00;;;;;;7340373;32;20202;-66
2022/07/04 11:28:26;;;;;;;3.87;0.60;;;25.80;81.90;;;;;;7333681;32;20122;-67
2022/07/04 11:32:45;;;;;;;1.98;0.40;;;25.80;79.90;;;;;;7346533;32;20511;-68
2022/07/04 11:36:49;;;;;;;1.58;0.47;;;25.90;81.50;;;;;;7339560;32;20348;-66
2022/07/04 11:45:11;;;;;;;1.10;0.32;;;26.20;83.20;;;;;;7345951;32;20217;-66
2022/07/04 11:49:13;;;;;;;4.32;0.50;;;26.10;80.10;;;;;;7340373;32;20704;-65
2022/07/04 11:53:17;;;;;;;3.03;0.60;;;25.30;80.20;;;;;;7340358;32;20122;-67
2022/07/04 11:57:25;;;;;;;2.62;0.52;;;25.20;80.80;;;;;;7344458;32;20119;-65
2022/07/04 12:01:28;;;;;;;1.60;0.40;;;25.20;84.60;;;;;;7338846;32;20205;-66
2022/07/04 12:05:31;;;;;;;3.40;0.65;;;25.40;76.70;;;;;;7341284;32;20514;-59
2022/07/04 12:09:33;;;;;;;1.73;0.55;;;25.30;73.70;;;;;;7338776;32;20194;-60
2022/07/04 12:13:35;;;;;;;1.37;0.50;;;25.00;78.00;;;;;;7346887;32;20803;-65
2022/07/04 12:17:38;;;;;;;2.70;0.70;;;25.10;80.80;;;;;;7341117;32;20494;-64
2022/07/04 12:21:42;;;;;;;1.05;0.40;;;25.20;78.00;;;;;;7340432;32;20115;-65
2022/07/04 12:25:47;;;;;;;2.70;0.70;;;25.40;77.80;;;;;;7345706;32;20685;-60
2022/07/04 12:29:49;;;;;;;4.68;0.62;;;25.10;78.00;;;;;;7343097;32;20192;-62
2022/07/04 12:33:57;;;;;;;2.83;0.60;;;25.00;77.60;;;;;;7338384;32;20190;-61
2022/07/04 12:38:04;;;;;;;2.87;0.82;;;25.10;77.50;;;;;;7346647;32;20187;-61
2022/07/04 12:42:17;;;;;;;2.33;0.60;;;24.70;77.30;;;;;;7341286;32;20123;-60
2022/07/04 12:46:32;;;;;;;2.78;0.50;;;24.30;83.10;;;;;;7342661;32;20179;-60
2022/07/04 12:50:37;;;;;;;3.37;0.70;;;24.10;79.40;;;;;;7335847;32;20206;-61
2022/07/04 12:54:40;;;;;;;1.75;0.40;;;23.90;83.50;;;;;;7344537;32;20091;-60
2022/07/04 12:58:42;;;;;;;4.75;0.70;;;23.60;82.20;;;;;;7342500;32;20138;-62
2022/07/04 13:02:43;;;;;;;2.20;0.50;;;23.40;85.90;;;;;;7343089;32;20154;-62
2022/07/04 13:06:46;;;;;;;2.35;0.50;;;23.20;87.70;;;;;;7340107;32;20156;-66
2022/07/04 13:12:23;;;;;;;1.60;0.60;;;23.50;88.40;;;;;;7333995;32;20118;-65
2022/07/04 13:15:12;;;;;;;1.42;0.50;;;23.80;87.20;;;;;;7336499;32;20103;-66
2022/07/04 13:19:16;;;;;;;3.08;0.50;;;24.10;84.90;;;;;;7342975;32;20245;-66
2022/07/04 13:23:18;;;;;;;2.53;0.60;;;24.80;81.30;;;;;;7343201;32;20191;-66
2022/07/04 13:27:21;;;;;;;3.45;0.60;;;24.50;78.10;;;;;;7345353;32;20209;-66
2022/07/04 13:31:23;;;;;;;4.22;0.40;;;24.10;78.20;;;;;;7329822;32;20096;-60
2022/07/04 13:35:24;;;;;;;3.78;0.60;;;24.00;82.10;;;;;;7337463;32;20099;-66
2022/07/04 13:39:27;;;;;;;1.83;0.50;;;24.90;79.10;;;;;;7339785;32;20211;-66
2022/07/04 13:43:48;;;;;;;2.90;0.60;;;26.20;78.10;;;;;;7329932;32;22658;-67
2022/07/04 13:47:51;;;;;;;13.68;9.57;;;26.20;73.30;;;;;;7341910;32;20661;-66
2022/07/04 13:51:53;;;;;;;2.72;0.70;;;26.50;73.50;;;;;;7337285;32;20457;-65
2022/07/04 13:55:55;;;;;;;1.10;0.50;;;26.40;71.60;;;;;;7338189;32;20223;-64
2022/07/04 13:59:57;;;;;;;2.37;0.50;;;26.80;71.90;;;;;;7342433;32;20164;-65
2022/07/04 14:03:58;;;;;;;2.53;0.80;;;27.10;73.10;;;;;;7347781;32;20596;-65
2022/07/04 14:08:00;;;;;;;23.58;18.12;;;27.30;70.00;;;;;;7344312;32;20198;-65
2022/07/04 14:12:02;;;;;;;3.80;0.68;;;27.10;72.10;;;;;;7342687;32;20103;-65
2022/07/04 14:16:05;;;;;;;2.30;0.60;;;26.70;72.00;;;;;;7343973;32;20135;-65
2022/07/04 14:20:09;;;;;;;3.25;0.50;;;26.40;74.60;;;;;;7345925;32;20103;-66
2022/07/04 14:24:11;;;;;;;3.78;0.80;;;26.00;74.90;;;;;;7345454;32;20702;-62
2022/07/04 14:28:13;;;;;;;2.58;0.62;;;26.40;78.60;;;;;;7348774;32;20237;-63
2022/07/04 14:32:15;;;;;;;4.32;0.40;;;26.80;69.00;;;;;;7352061;32;20111;-63
2022/07/04 14:36:17;;;;;;;2.50;0.70;;;27.20;68.30;;;;;;7348753;32;20572;-62
2022/07/04 14:40:18;;;;;;;1.60;0.30;;;27.20;62.20;;;;;;7348134;32;20155;-62
2022/07/04 14:44:20;;;;;;;2.90;0.50;;;27.00;66.20;;;;;;7354209;32;20115;-62
2022/07/04 14:48:22;;;;;;;5.53;0.80;;;26.40;66.60;;;;;;7340743;32;20180;-68
2022/07/04 14:52:24;;;;;;;4.65;0.70;;;26.30;67.10;;;;;;7354319;32;20115;-68
2022/07/04 14:56:26;;;;;;;1.95;0.45;;;26.10;70.50;;;;;;7341396;32;20591;-67
2022/07/04 15:00:27;;;;;;;3.05;0.50;;;25.90;70.00;;;;;;7340215;32;20224;-66
2022/07/04 15:04:29;;;;;;;5.47;0.70;;;25.50;69.20;;;;;;7350941;32;20189;-67
2022/07/04 15:08:31;;;;;;;1.92;0.43;;;25.50;70.60;;;;;;7357191;32;20195;-67
2022/07/04 15:12:34;;;;;;;5.07;0.50;;;25.60;70.20;;;;;;7356122;32;20289;-67
2022/07/04 15:16:36;;;;;;;2.80;0.88;;;25.60;72.10;;;;;;7354766;32;20108;-67
2022/07/04 15:24:59;;;;;;;2.15;0.60;;;25.50;68.80;;;;;;7344984;32;20452;-70
2022/07/04 15:29:00;;;;;;;5.32;0.73;;;25.10;72.00;;;;;;7338731;32;20891;-70
2022/07/04 15:33:02;;;;;;;5.85;0.60;;;24.80;74.70;;;;;;7346159;32;20677;-68
2022/07/04 15:37:04;;;;;;;3.33;0.50;;;24.70;76.00;;;;;;7338167;32;20715;-67
2022/07/04 15:41:06;;;;;;;3.42;0.50;;;24.20;75.70;;;;;;7344728;32;20115;-69
2022/07/04 15:45:08;;;;;;;1.37;0.30;;;24.10;76.50;;;;;;7341401;32;20126;-69
2022/07/04 15:49:10;;;;;;;3.78;0.50;;;23.70;77.60;;;;;;7343418;32;20197;-67
2022/07/04 15:53:21;;;;;;;3.08;0.40;;;23.60;78.70;;;;;;7347662;32;20104;-68
2022/07/04 15:57:22;;;;;;;2.25;0.50;;;23.70;78.00;;;;;;7343330;32;20139;-67
2022/07/04 16:01:24;;;;;;;6.90;5.12;;;23.90;77.60;;;;;;7341209;32;20210;-66
2022/07/04 16:05:26;;;;;;;2.78;0.82;;;23.80;77.50;;;;;;7336182;32;20170;-63
2022/07/04 16:09:29;;;;;;;3.28;0.60;;;23.80;78.40;;;;;;7339728;32;20236;-66
2022/07/04 16:13:31;;;;;;;3.25;0.60;;;23.90;78.00;;;;;;7342811;32;20286;-65
2022/07/04 16:17:33;;;;;;;6.07;0.77;;;23.50;80.90;;;;;;7340665;32;20217;-68
2022/07/04 16:21:36;;;;;;;2.00;0.60;;;23.40;81.20;;;;;;7338577;32;20131;-67
2022/07/04 16:25:37;;;;;;;2.53;0.55;;;23.50;79.70;;;;;;7341753;32;20202;-65
2022/07/04 16:29:39;;;;;;;2.53;0.50;;;23.50;79.00;;;;;;7344381;32;20180;-67
2022/07/04 16:33:41;;;;;;;1.87;0.55;;;23.70;77.50;;;;;;7340135;32;20204;-64
2022/07/04 16:37:43;;;;;;;5.57;0.68;;;23.30;77.70;;;;;;7343540;32;20180;-65
2022/07/04 16:41:44;;;;;;;1.35;0.47;;;23.00;79.30;;;;;;7342545;32;20544;-65
2022/07/04 16:45:46;;;;;;;3.70;0.68;;;23.10;79.20;;;;;;7340205;32;20747;-66
2022/07/04 16:49:48;;;;;;;4.18;0.50;;;23.20;79.00;;;;;;7346057;32;20232;-66
2022/07/04 16:53:51;;;;;;;3.55;0.85;;;23.40;79.60;;;;;;7340101;32;20103;-67
2022/07/04 16:57:53;;;;;;;3.97;0.60;;;23.40;80.30;;;;;;7339457;32;20639;-68
2022/07/04 17:01:55;;;;;;;2.15;1.15;;;23.20;80.90;;;;;;7338345;32;20100;-66
2022/07/04 17:05:57;;;;;;;1.60;0.70;;;23.10;79.70;;;;;;7339231;32;20130;-67
2022/07/04 17:09:59;;;;;;;2.22;0.77;;;23.00;80.40;;;;;;7340899;32;20167;-66
2022/07/04 17:14:01;;;;;;;2.58;0.62;;;23.00;78.00;;;;;;7342992;32;20100;-67
2022/07/04 17:18:04;;;;;;;3.83;0.60;;;22.90;81.50;;;;;;7342635;32;20111;-67
2022/07/04 17:22:05;;;;;;;1.98;0.77;;;22.90;80.40;;;;;;7341038;32;20717;-66
2022/07/04 17:26:07;;;;;;;4.28;0.80;;;23.00;82.90;;;;;;7332670;32;20565;-67
2022/07/04 17:30:11;;;;;;;15.77;12.13;;;23.10;83.40;;;;;;7338778;32;20582;-67
2022/07/04 17:34:14;;;;;;;3.97;0.90;;;23.10;82.90;;;;;;7344015;32;20198;-66
2022/07/04 17:38:16;;;;;;;2.95;0.75;;;23.20;82.80;;;;;;7344071;32;20110;-66
2022/07/04 17:42:18;;;;;;;6.35;3.15;;;23.20;81.20;;;;;;7342491;32;20130;-66
2022/07/04 17:46:20;;;;;;;3.12;0.77;;;23.00;83.60;;;;;;7342984;32;20127;-65
2022/07/04 17:50:22;;;;;;;4.10;0.80;;;23.00;84.10;;;;;;7341322;32;20378;-66
2022/07/04 17:54:25;;;;;;;4.32;0.85;;;23.00;83.10;;;;;;7333750;32;20111;-66
2022/07/04 17:58:47;;;;;;;6.40;0.70;;;22.90;85.50;;;;;;7339589;32;20532;-66
2022/07/04 18:02:49;;;;;;;3.60;0.85;;;22.80;86.30;;;;;;7333660;32;20123;-66
2022/07/04 18:06:52;;;;;;;3.45;0.93;;;22.80;86.80;;;;;;7342717;32;20136;-67
2022/07/04 18:10:54;;;;;;;3.80;1.05;;;22.70;88.50;;;;;;7337998;32;20547;-67
2022/07/04 18:14:56;;;;;;;2.33;0.65;;;22.60;88.00;;;;;;7335145;32;20802;-67
2022/07/04 18:18:57;;;;;;;5.25;0.88;;;22.50;89.00;;;;;;7337298;32;20172;-66
2022/07/04 18:22:59;;;;;;;3.00;0.80;;;22.30;90.10;;;;;;7327781;32;20175;-67
2022/07/04 18:27:01;;;;;;;5.55;0.80;;;22.10;90.80;;;;;;7335070;32;20720;-68
2022/07/04 18:31:10;;;;;;;3.28;1.08;;;22.00;91.30;;;;;;7340997;32;20227;-62
2022/07/04 18:35:12;;;;;;;2.60;0.88;;;21.80;92.40;;;;;;7339640;32;20202;-61
2022/07/04 18:39:14;;;;;;;2.42;0.80;;;21.80;93.10;;;;;;7344238;32;20280;-66
2022/07/04 18:43:26;;;;;;;3.22;0.90;;;21.70;93.50;;;;;;7337584;32;20139;-67
2022/07/04 18:47:28;;;;;;;2.75;1.02;;;21.60;94.00;;;;;;7335251;32;20209;-67
2022/07/04 18:51:32;;;;;;;4.95;1.00;;;21.40;95.20;;;;;;7337123;32;20099;-67
2022/07/04 18:55:34;;;;;;;3.28;0.93;;;21.40;96.00;;;;;;7341436;32;20158;-67
2022/07/04 18:59:36;;;;;;;3.03;1.00;;;21.20;96.90;;;;;;7332473;32;20159;-67
2022/07/04 19:03:38;;;;;;;3.00;1.10;;;21.10;98.30;;;;;;7344272;32;20139;-66
2022/07/04 19:07:39;;;;;;;2.53;1.00;;;20.90;99.90;;;;;;7332959;32;20253;-67
2022/07/04 19:11:41;;;;;;;2.65;1.20;;;20.70;99.90;;;;;;7336653;32;20228;-68
2022/07/04 19:15:43;;;;;;;11.48;9.10;;;20.50;99.90;;;;;;7343729;32;20693;-67
2022/07/04 19:19:45;;;;;;;4.25;1.60;;;20.30;99.90;;;;;;7338496;32;20115;-65
2022/07/04 19:23:47;;;;;;;7.20;1.10;;;20.10;99.90;;;;;;7336236;32;20134;-67
2022/07/04 19:27:49;;;;;;;5.03;1.70;;;20.00;99.90;;;;;;7343886;32;20661;-68
2022/07/04 19:31:53;;;;;;;4.95;1.62;;;19.80;99.90;;;;;;7349475;32;20528;-65
2022/07/04 19:35:55;;;;;;;3.30;1.40;;;19.60;99.90;;;;;;7350920;32;20198;-64
2022/07/04 19:39:57;;;;;;;3.85;1.20;;;19.40;99.90;;;;;;7357424;32;20570;-66
2022/07/04 19:43:58;;;;;;;4.12;1.27;;;19.30;99.90;;;;;;7356052;32;20111;-66
2022/07/04 19:48:00;;;;;;;4.20;1.33;;;19.10;99.90;;;;;;7339624;32;20233;-66
2022/07/04 19:56:23;;;;;;;25.15;18.25;;;18.60;99.90;;;;;;7334459;32;20614;-66
2022/07/04 20:00:25;;;;;;;3.55;1.27;;;18.50;99.90;;;;;;7348303;32;20094;-66
2022/07/04 20:04:27;;;;;;;7.03;1.50;;;18.30;99.90;;;;;;7347737;32;20523;-64
2022/07/04 20:08:28;;;;;;;7.10;1.50;;;18.10;99.90;;;;;;7350938;32;20207;-65
2022/07/04 20:12:30;;;;;;;3.92;1.37;;;17.90;99.90;;;;;;7349796;32;20117;-64
2022/07/04 20:16:34;;;;;;;6.22;1.40;;;17.70;99.90;;;;;;7354208;32;20193;-66
2022/07/04 20:20:36;;;;;;;8.98;1.80;;;17.50;99.90;;;;;;7339063;32;20146;-65
2022/07/04 20:24:38;;;;;;;5.78;1.50;;;17.40;99.90;;;;;;7342028;32;20216;-63
2022/07/04 20:28:40;;;;;;;5.03;1.50;;;17.30;99.90;;;;;;7340487;32;20118;-63
2022/07/04 20:32:42;;;;;;;4.55;1.90;;;17.20;99.90;;;;;;7342796;32;20100;-64
2022/07/04 20:36:44;;;;;;;5.47;2.10;;;17.00;99.90;;;;;;7334706;32;20157;-65
2022/07/04 20:40:51;;;;;;;;;;;16.90;99.90;;;;;;7341648;32;20275;-64
2022/07/04 20:44:53;;;;;;;5.25;1.67;;;16.80;99.90;;;;;;7341239;32;20099;-64
2022/07/04 20:48:55;;;;;;;5.05;1.62;;;16.60;99.90;;;;;;7344500;32;20181;-63
2022/07/04 20:52:57;;;;;;;8.63;1.80;;;16.60;99.90;;;;;;7341567;32;20131;-64
2022/07/04 20:56:59;;;;;;;6.87;1.83;;;16.50;99.90;;;;;;7343104;32;20107;-64
2022/07/04 21:01:00;;;;;;;4.57;2.00;;;16.30;99.90;;;;;;7339301;32;20119;-64
2022/07/04 21:05:04;;;;;;;9.13;2.28;;;16.20;99.90;;;;;;7340831;32;20108;-65
2022/07/04 21:09:23;;;;;;;4.22;1.90;;;16.10;99.90;;;;;;7344813;32;20364;-62
2022/07/04 21:13:25;;;;;;;7.05;2.58;;;16.00;99.90;;;;;;7336667;32;20190;-64
2022/07/04 21:17:26;;;;;;;4.18;2.05;;;15.90;99.90;;;;;;7343510;32;20612;-64
2022/07/04 21:21:28;;;;;;;5.87;2.42;;;15.80;99.90;;;;;;7345340;32;20115;-64
2022/07/04 21:25:30;;;;;;;4.07;2.10;;;15.80;99.90;;;;;;7339399;32;20195;-64
2022/07/04 21:29:32;;;;;;;9.48;2.78;;;15.60;99.90;;;;;;7341647;32;20130;-66
2022/07/04 21:33:35;;;;;;;3.33;2.28;;;15.60;99.90;;;;;;7344369;32;20135;-65